Time;durP1;ratioP1;P1;durP2;ratioP2;P2;SDS_P1;SDS_P2;PMS_P1;PMS_P2;Temp;Humidity;BMP_temperature;BMP_pressure;BME280_temperature;BME280_humidity;BME280_pressure;Samples;Min_cycle;Max_cycle;Signal;HPM_P1;HPM_P2
2022/08/11 00:01:07;;;;;;;5.57;3.63;;;17.80;99.90;;;;;;5036837;28;20124;-75
2022/08/11 00:03:34;;;;;;;4.47;3.55;;;17.70;99.90;;;;;;5037024;28;20045;-75
2022/08/11 00:06:01;;;;;;;3.97;3.58;;;17.70;99.90;;;;;;5037107;28;20069;-76
2022/08/11 00:08:30;;;;;;;6.53;4.30;;;17.70;99.90;;;;;;5037339;28;20170;-75
2022/08/11 00:11:05;;;;;;;6.82;4.13;;;17.70;99.90;;;;;;5036529;28;20460;-76
2022/08/11 00:13:46;;;;;;;5.80;3.90;;;17.60;99.90;;;;;;5036909;28;20503;-77
2022/08/11 00:16:18;;;;;;;6.57;4.05;;;17.60;99.90;;;;;;5036975;28;20041;-78
2022/08/11 00:18:47;;;;;;;7.57;3.95;;;17.60;99.90;;;;;;5036729;28;20052;-75
2022/08/11 00:21:14;;;;;;;4.88;3.78;;;17.50;99.90;;;;;;5054339;28;20407;-75
2022/08/11 00:23:54;;;;;;;5.65;3.70;;;17.50;99.90;;;;;;5053459;28;20045;-75
2022/08/11 00:26:22;;;;;;;6.18;3.45;;;17.50;99.90;;;;;;5036364;28;20041;-75
2022/08/11 00:28:50;;;;;;;7.78;4.30;;;17.40;99.90;;;;;;5036620;28;20060;-77
2022/08/11 00:31:31;;;;;;;6.15;3.55;;;17.40;99.90;;;;;;5036181;28;20056;-75
2022/08/11 00:33:59;;;;;;;6.80;4.13;;;17.40;99.90;;;;;;5036343;28;20041;-76
2022/08/11 00:36:37;;;;;;;9.07;4.40;;;17.20;99.90;;;;;;5036675;28;20090;-75
2022/08/11 00:39:05;;;;;;;5.68;4.07;;;17.30;99.90;;;;;;5036371;28;20041;-75
2022/08/11 00:41:58;;;;;;;6.57;3.80;;;17.20;99.90;;;;;;5035870;28;20040;-76
2022/08/11 00:44:57;;;;;;;8.98;4.47;;;17.20;99.90;;;;;;5053875;28;20049;-75
2022/08/11 00:47:34;;;;;;;8.77;4.43;;;17.20;99.90;;;;;;5036247;28;20032;-76
2022/08/11 00:50:11;;;;;;;6.55;3.80;;;17.10;99.90;;;;;;5035876;28;20498;-75
2022/08/11 00:52:49;;;;;;;7.45;4.35;;;17.20;99.90;;;;;;5036319;28;20086;-75
2022/08/11 00:55:32;;;;;;;8.15;4.07;;;17.10;99.90;;;;;;5035138;28;20053;-75
2022/08/11 00:58:16;;;;;;;10.95;4.30;;;17.10;99.90;;;;;;5036257;28;20372;-78
2022/08/11 01:01:08;;;;;;;8.75;3.92;;;17.10;99.90;;;;;;5035581;28;20756;-77
2022/08/11 01:03:58;;;;;;;12.45;4.70;;;17.10;99.90;;;;;;5025347;28;20146;-78
2022/08/11 01:06:51;;;;;;;6.57;5.00;;;17.00;99.90;;;;;;5035757;28;20052;-78
2022/08/11 01:09:29;;;;;;;7.93;5.05;;;17.00;99.90;;;;;;5035590;28;20094;-79
2022/08/11 01:12:19;;;;;;;7.85;4.20;;;17.00;99.90;;;;;;5035596;28;20040;-78
2022/08/11 01:15:17;;;;;;;5.38;4.20;;;16.90;99.90;;;;;;5035811;28;20044;-78
2022/08/11 01:18:10;;;;;;;8.48;4.55;;;16.90;99.90;;;;;;5035659;28;20048;-78
2022/08/11 01:20:57;;;;;;;8.85;4.38;;;16.90;99.90;;;;;;5035216;28;20051;-78
2022/08/11 01:24:01;;;;;;;6.07;4.45;;;16.90;99.90;;;;;;5018727;28;20056;-78
2022/08/11 01:26:47;;;;;;;10.85;5.40;;;16.80;99.90;;;;;;5053366;28;20037;-78
2022/08/11 01:29:28;;;;;;;7.47;5.07;;;16.80;99.90;;;;;;5035321;28;20037;-78
2022/08/11 01:32:23;;;;;;;7.50;4.60;;;16.70;99.90;;;;;;5035248;28;20095;-78
2022/08/11 01:35:19;;;;;;;9.13;5.35;;;16.70;99.90;;;;;;5035351;28;20114;-78
2022/08/11 01:38:22;;;;;;;10.38;5.18;;;16.60;99.90;;;;;;5018716;28;20053;-78
2022/08/11 01:41:01;;;;;;;11.40;5.40;;;16.60;99.90;;;;;;5035159;28;20156;-78
2022/08/11 01:47:01;;;;;;;7.45;4.97;;;16.60;99.90;;;;;;5035083;28;20379;-78
2022/08/11 01:49:38;;;;;;;6.72;5.13;;;16.60;99.90;;;;;;5035153;28;20041;-78
2022/08/11 01:52:29;;;;;;;6.47;4.57;;;16.50;99.90;;;;;;5035043;28;20083;-78
2022/08/11 01:55:27;;;;;;;7.85;5.18;;;16.50;99.90;;;;;;5035145;28;20679;-79
2022/08/11 01:58:09;;;;;;;10.45;5.07;;;16.50;99.90;;;;;;5047581;28;20079;-79
2022/08/11 02:00:53;;;;;;;5.97;4.97;;;16.50;99.90;;;;;;5034945;28;20567;-78
2022/08/11 02:03:43;;;;;;;8.80;5.25;;;16.40;99.90;;;;;;5034899;28;20049;-78
2022/08/11 02:06:54;;;;;;;10.52;5.15;;;16.40;99.90;;;;;;5034568;28;20036;-78
2022/08/11 02:09:42;;;;;;;7.45;5.18;;;16.40;99.90;;;;;;5030909;28;20053;-78
2022/08/11 02:12:37;;;;;;;9.55;5.60;;;16.30;99.90;;;;;;5034615;28;20033;-78
2022/08/11 02:15:14;;;;;;;8.75;5.20;;;16.30;99.90;;;;;;5034827;28;20118;-78
2022/08/11 02:18:11;;;;;;;7.43;4.85;;;16.30;99.90;;;;;;5034514;28;20098;-77
2022/08/11 02:23:51;;;;;;;7.75;5.32;;;16.20;99.90;;;;;;5034438;28;20411;-78
2022/08/11 02:26:24;;;;;;;13.15;5.05;;;16.20;99.90;;;;;;5034794;28;20581;-78
2022/08/11 02:29:16;;;;;;;11.65;5.70;;;16.10;99.90;;;;;;5017806;28;20068;-78
2022/08/11 02:35:13;;;;;;;8.82;5.50;;;16.00;99.90;;;;;;5019020;28;20463;-78
2022/08/11 02:37:53;;;;;;;11.02;6.18;;;16.00;99.90;;;;;;5051250;28;20075;-78
2022/08/11 02:40:22;;;;;;;9.43;5.70;;;16.00;99.90;;;;;;5034108;28;20047;-78
2022/08/11 02:42:47;;;;;;;10.15;5.72;;;16.00;99.90;;;;;;5033978;28;20103;-80
2022/08/11 02:45:28;;;;;;;9.82;6.40;;;16.00;99.90;;;;;;5034363;28;20072;-78
2022/08/11 02:51:19;;;;;;;9.48;5.57;;;15.90;99.90;;;;;;5033632;28;20063;-78
2022/08/11 02:54:20;;;;;;;8.05;5.45;;;15.90;99.90;;;;;;5034134;28;20064;-78
2022/08/11 02:57:11;;;;;;;9.55;5.75;;;15.90;99.90;;;;;;5034097;28;20045;-78
2022/08/11 02:59:54;;;;;;;11.35;5.80;;;15.80;99.90;;;;;;5034131;28;20045;-78
2022/08/11 03:02:31;;;;;;;;;;;15.70;99.90;;;;;;5034369;28;20087;-78
2022/08/11 03:04:57;;;;;;;6.95;5.70;;;15.60;99.90;;;;;;5033801;28;19921;-78
2022/08/11 03:07:39;;;;;;;9.73;6.25;;;15.70;99.90;;;;;;5033783;28;20052;-78
2022/08/11 03:10:16;;;;;;;11.68;6.85;;;15.60;99.90;;;;;;5034115;28;20444;-78
2022/08/11 03:19:09;;;;;;;9.25;5.75;;;15.60;99.90;;;;;;5035221;28;20634;-78
2022/08/11 03:22:08;;;;;;;11.40;6.47;;;15.70;99.90;;;;;;5033416;28;20052;-78
2022/08/11 03:24:52;;;;;;;8.68;6.10;;;15.60;99.90;;;;;;5017410;28;20049;-78
2022/08/11 03:27:52;;;;;;;11.48;6.68;;;15.60;99.90;;;;;;5033374;28;20041;-78
2022/08/11 03:30:31;;;;;;;10.82;6.85;;;15.60;99.90;;;;;;5033175;28;20047;-78
2022/08/11 03:36:32;;;;;;;13.45;7.78;;;15.60;99.90;;;;;;5033327;28;20080;-78
2022/08/11 03:39:07;;;;;;;9.98;7.40;;;15.60;99.90;;;;;;5033685;28;20270;-78
2022/08/11 03:41:58;;;;;;;10.55;6.78;;;15.60;99.90;;;;;;5032954;28;20045;-78
2022/08/11 03:44:36;;;;;;;10.77;6.53;;;15.50;99.90;;;;;;5033170;28;20475;-78
2022/08/11 03:47:32;;;;;;;18.05;7.13;;;15.50;99.90;;;;;;5033447;28;20075;-79
2022/08/11 03:50:27;;;;;;;9.90;7.20;;;15.50;99.90;;;;;;5033066;28;20049;-79
2022/08/11 03:53:26;;;;;;;12.48;6.97;;;15.50;99.90;;;;;;5033553;28;20049;-79
2022/08/11 03:56:07;;;;;;;10.35;7.88;;;15.40;99.90;;;;;;5033061;28;20384;-78
2022/08/11 03:59:03;;;;;;;12.27;7.25;;;15.50;99.90;;;;;;5033167;28;20087;-78
2022/08/11 04:01:48;;;;;;;15.10;8.13;;;15.40;99.90;;;;;;5032841;28;20094;-79
2022/08/11 04:04:53;;;;;;;12.45;7.70;;;15.40;99.90;;;;;;5032868;28;20041;-78
2022/08/11 04:07:56;;;;;;;13.20;7.05;;;15.40;99.90;;;;;;5033533;28;20145;-79
2022/08/11 04:10:34;;;;;;;10.52;7.38;;;15.30;99.90;;;;;;5032549;28;20124;-79
2022/08/11 04:13:25;;;;;;;12.68;7.65;;;15.30;99.90;;;;;;5032943;28;20045;-78
2022/08/11 04:16:01;;;;;;;11.60;8.00;;;15.40;99.90;;;;;;5033165;28;20406;-78
2022/08/11 04:19:04;;;;;;;11.65;7.50;;;15.30;99.90;;;;;;5016204;28;20045;-78
2022/08/11 04:22:01;;;;;;;12.15;7.60;;;15.30;99.90;;;;;;5032663;28;20049;-78
2022/08/11 04:24:51;;;;;;;12.93;7.50;;;15.30;99.90;;;;;;5032695;28;20045;-79
2022/08/11 04:27:32;;;;;;;13.02;7.75;;;15.30;99.90;;;;;;5033039;28;20041;-78
2022/08/11 04:30:36;;;;;;;12.88;7.85;;;15.30;99.90;;;;;;5017680;28;20037;-78
2022/08/11 04:33:25;;;;;;;15.35;8.68;;;15.30;99.90;;;;;;5038733;28;20080;-78
2022/08/11 04:37:30;;;;;;;12.55;7.88;;;15.30;99.90;;;;;;4999531;28;20068;-79
2022/08/11 04:39:18;;;;;;;12.60;7.85;;;15.30;99.90;;;;;;5036209;28;20376;-78
2022/08/11 04:45:34;;;;;;;15.90;8.13;;;15.40;99.90;;;;;;5036007;28;20060;-81
2022/08/11 05:03:23;;;;;;;12.95;8.63;;;15.50;99.90;;;;;;5035532;28;20090;-78
2022/08/11 05:06:26;;;;;;;12.45;7.43;;;15.70;99.90;;;;;;5035854;28;20048;-78
2022/08/11 05:09:18;;;;;;;13.52;8.00;;;15.80;99.90;;;;;;5035922;28;20087;-78
2022/08/11 05:12:06;;;;;;;11.23;7.50;;;16.00;99.90;;;;;;5035570;28;20052;-78
2022/08/11 05:34:52;;;;;;;9.75;6.93;;;18.60;99.90;;;;;;5035054;28;20060;-80
2022/08/11 05:37:32;;;;;;;10.93;6.80;;;18.90;99.90;;;;;;5034950;28;20392;-78
2022/08/11 05:57:07;;;;;;;9.20;6.32;;;20.10;99.90;;;;;;5034746;28;20061;-79
2022/08/11 05:59:34;;;;;;;10.82;7.18;;;19.80;99.90;;;;;;5051321;28;20076;-79
2022/08/11 06:02:04;;;;;;;13.13;7.00;;;19.60;99.90;;;;;;5034865;28;20538;-79
2022/08/11 06:04:31;;;;;;;10.30;6.90;;;19.40;99.90;;;;;;5034616;28;20417;-79
2022/08/11 06:07:07;;;;;;;9.00;6.57;;;19.20;99.90;;;;;;5034444;28;20065;-78
2022/08/11 06:09:35;;;;;;;12.95;7.05;;;19.00;99.90;;;;;;5018094;28;20040;-78
2022/08/11 06:12:20;;;;;;;10.02;6.03;;;18.90;99.90;;;;;;5034386;28;20083;-78
2022/08/11 06:14:49;;;;;;;12.10;6.75;;;19.30;99.90;;;;;;5034817;28;20145;-79
2022/08/11 06:17:26;;;;;;;9.23;6.60;;;19.80;99.90;;;;;;5052308;28;20045;-79
2022/08/11 06:20:11;;;;;;;13.02;6.60;;;20.30;99.90;;;;;;5052288;28;20123;-80
2022/08/11 06:22:38;;;;;;;10.55;6.10;;;20.90;99.90;;;;;;5034435;28;20044;-80
2022/08/11 06:25:06;;;;;;;7.95;6.32;;;21.10;99.90;;;;;;5018179;28;20037;-79
2022/08/11 06:27:35;;;;;;;8.40;5.93;;;21.20;99.90;;;;;;5034527;28;20037;-81
2022/08/11 06:30:12;;;;;;;8.40;6.25;;;21.30;99.90;;;;;;5039227;28;20037;-78
2022/08/11 06:32:45;;;;;;;8.05;5.78;;;21.40;99.90;;;;;;5050831;28;20040;-77
2022/08/11 06:35:29;;;;;;;8.98;5.50;;;21.60;99.90;;;;;;5042068;28;20045;-79
2022/08/11 06:37:55;;;;;;;10.07;5.22;;;21.90;99.90;;;;;;5034337;28;20036;-80
2022/08/11 06:41:29;;;;;;;7.40;5.60;;;22.20;99.90;;;;;;5018496;28;20117;-79
2022/08/11 06:43:49;;;;;;;8.35;5.43;;;22.50;99.90;;;;;;5034198;28;20049;-79
2022/08/11 06:46:25;;;;;;;6.85;5.00;;;22.80;99.90;;;;;;5034385;28;20484;-79
2022/08/11 06:48:53;;;;;;;7.75;4.90;;;23.10;99.90;;;;;;5034918;28;20045;-79
2022/08/11 06:51:19;;;;;;;6.72;4.65;;;23.60;99.90;;;;;;5034436;28;20551;-80
2022/08/11 06:53:52;;;;;;;8.15;4.00;;;23.70;99.90;;;;;;5034884;28;20090;-80
2022/08/11 07:02:25;;;;;;;7.88;4.03;;;23.80;99.90;;;;;;5052985;28;20526;-79
2022/08/11 07:05:00;;;;;;;5.13;3.35;;;23.60;99.90;;;;;;5033965;28;20045;-79
2022/08/11 07:16:27;;;;;;;5.18;3.17;;;23.20;99.90;;;;;;5034818;28;20071;-79
2022/08/11 07:31:07;;;;;;;6.20;3.00;;;23.90;99.90;;;;;;5033587;28;20049;-79
2022/08/11 07:33:41;;;;;;;4.20;2.38;;;24.60;99.90;;;;;;5033984;28;20067;-79
2022/08/11 07:36:11;;;;;;;4.82;2.53;;;25.00;99.90;;;;;;5035658;28;20036;-79
2022/08/11 07:39:06;;;;;;;3.97;2.40;;;25.50;99.90;;;;;;5037524;28;20516;-79
2022/08/11 07:41:33;;;;;;;7.70;3.08;;;26.00;99.90;;;;;;5033518;28;20356;-79
2022/08/11 07:44:07;;;;;;;4.63;2.70;;;26.40;99.90;;;;;;5019694;28;20551;-79
2022/08/11 07:52:31;;;;;;;4.47;2.13;;;27.40;99.90;;;;;;5053687;28;20463;-79
2022/08/11 07:55:12;;;;;;;3.75;1.52;;;27.60;99.90;;;;;;5019371;28;20041;-80
2022/08/11 08:19:43;;;;;;;2.20;1.30;;;29.20;87.10;;;;;;5041272;28;20049;-79
2022/08/11 08:22:10;;;;;;;3.05;1.20;;;29.30;88.30;;;;;;5059540;28;20095;-79
2022/08/11 08:24:38;;;;;;;4.32;1.55;;;29.50;80.30;;;;;;5041688;28;20127;-80
2022/08/11 08:27:04;;;;;;;2.30;1.25;;;29.60;73.70;;;;;;5041670;28;20095;-79
2022/08/11 08:32:21;;;;;;;1.42;0.93;;;29.90;78.10;;;;;;5036323;28;20140;-77
2022/08/11 08:34:49;;;;;;;3.92;1.27;;;30.00;76.80;;;;;;5036402;28;20048;-77
2022/08/11 08:37:18;;;;;;;2.95;1.30;;;30.00;71.60;;;;;;5036501;28;20040;-77
2022/08/11 08:39:45;;;;;;;3.20;1.30;;;30.20;69.40;;;;;;5036002;28;20094;-77
2022/08/11 08:42:16;;;;;;;4.07;1.20;;;30.50;71.30;;;;;;5036264;28;20060;-77
2022/08/11 08:44:45;;;;;;;5.03;1.30;;;30.60;73.00;;;;;;5036147;28;20408;-78
2022/08/11 08:47:17;;;;;;;4.60;1.00;;;30.70;66.30;;;;;;5036009;28;20124;-77
2022/08/11 08:49:49;;;;;;;2.47;1.15;;;30.70;60.20;;;;;;5036022;28;20091;-77
2022/08/11 08:52:18;;;;;;;2.88;1.35;;;30.60;63.90;;;;;;5036019;28;20038;-77
2022/08/11 08:54:47;;;;;;;3.38;1.20;;;30.70;60.80;;;;;;5035994;28;20135;-77
2022/08/11 08:57:15;;;;;;;4.82;1.40;;;30.90;61.80;;;;;;5036071;28;20036;-77
2022/08/11 08:59:46;;;;;;;3.65;1.08;;;30.80;60.20;;;;;;5035736;28;20044;-77
2022/08/11 09:02:12;;;;;;;2.97;1.27;;;30.80;58.00;;;;;;5035726;28;20037;-77
2022/08/11 09:04:39;;;;;;;9.23;1.50;;;30.80;58.60;;;;;;5053754;28;20041;-76
2022/08/11 09:07:11;;;;;;;2.30;1.10;;;30.80;58.50;;;;;;5035714;28;20377;-77
2022/08/11 09:09:47;;;;;;;3.22;1.23;;;30.90;57.70;;;;;;5053171;28;20120;-77
2022/08/11 09:12:13;;;;;;;3.25;0.90;;;31.00;57.90;;;;;;5035685;28;20075;-77
2022/08/11 09:17:42;;;;;;;1.20;1.00;;;31.10;55.50;;;;;;5034632;28;20064;-77
2022/08/11 09:20:16;;;;;;;3.05;0.80;;;31.10;54.50;;;;;;5035542;28;20052;-77
2022/08/11 09:28:16;;;;;;;1.63;0.90;;;31.30;53.40;;;;;;5035154;28;20106;-76
2022/08/11 09:30:43;;;;;;;1.92;0.93;;;31.50;53.50;;;;;;5018319;28;20045;-77
2022/08/11 09:33:12;;;;;;;1.30;0.90;;;31.60;52.60;;;;;;5035024;28;20045;-76
2022/08/11 09:35:42;;;;;;;2.83;0.90;;;31.80;51.60;;;;;;5035513;28;20049;-77
2022/08/11 09:40:55;;;;;;;3.85;1.10;;;32.20;50.80;;;;;;5052424;28;20048;-77
2022/08/11 09:46:08;;;;;;;2.88;0.82;;;32.20;49.00;;;;;;5035053;28;20087;-77
2022/08/11 09:48:39;;;;;;;3.08;1.27;;;32.30;49.20;;;;;;5034768;28;20041;-77
2022/08/11 09:51:05;;;;;;;;;;;32.40;48.80;;;;;;5034904;28;20132;-76
2022/08/11 09:53:35;;;;;;;1.48;1.25;;;32.40;47.90;;;;;;5034589;28;19917;-77
2022/08/11 09:58:12;;;;;;;3.10;1.63;;;32.20;49.00;;;;;;5034391;28;20045;-76
2022/08/11 09:58:51;;;;;;;6.32;1.83;;;32.30;48.20;;;;;;5034169;28;20053;-76
2022/08/11 10:01:26;;;;;;;3.47;1.20;;;32.10;47.80;;;;;;5034097;28;20051;-77
2022/08/11 10:04:02;;;;;;;1.90;1.05;;;32.10;48.30;;;;;;5034678;28;20049;-76
2022/08/11 10:09:20;;;;;;;5.15;1.55;;;32.00;47.60;;;;;;5053326;28;20067;-76
2022/08/11 10:11:47;;;;;;;3.80;1.30;;;32.00;46.30;;;;;;5035813;28;20097;-76
2022/08/11 10:17:07;;;;;;;8.15;1.65;;;32.20;47.90;;;;;;5033976;28;20107;-77
2022/08/11 10:19:36;;;;;;;3.15;1.58;;;32.30;48.00;;;;;;5033722;28;20479;-76
2022/08/11 10:27:33;;;;;;;2.55;1.27;;;32.60;47.30;;;;;;5033597;28;20476;-77
2022/08/11 10:35:30;;;;;;;2.58;1.23;;;32.30;46.80;;;;;;5033706;28;20123;-77
2022/08/11 10:37:58;;;;;;;4.70;1.50;;;32.20;47.30;;;;;;5051830;28;20047;-76
2022/08/11 10:40:24;;;;;;;1.58;1.25;;;32.20;47.30;;;;;;5033567;28;20072;-76
2022/08/11 10:43:02;;;;;;;3.10;0.90;;;32.10;46.10;;;;;;5033942;28;20047;-77
2022/08/11 10:48:23;;;;;;;3.65;1.50;;;31.90;45.60;;;;;;5033467;28;20056;-77
2022/08/11 10:59:23;;;;;;;3.47;1.30;;;31.50;47.10;;;;;;5033407;28;20106;-76
2022/08/11 11:01:51;;;;;;;2.88;1.45;;;31.70;46.10;;;;;;5051049;28;20077;-76
2022/08/11 11:04:21;;;;;;;5.28;1.40;;;31.80;45.80;;;;;;5033256;28;20401;-77
2022/08/11 11:07:12;;;;;;;2.20;1.30;;;31.90;45.90;;;;;;5033238;28;20116;-76
2022/08/11 11:09:48;;;;;;;3.50;1.20;;;32.00;46.70;;;;;;5050885;28;20546;-77
2022/08/11 11:18:08;;;;;;;3.13;1.17;;;32.10;44.30;;;;;;5033401;28;20107;-76
2022/08/11 11:20:33;;;;;;;3.03;1.23;;;32.10;44.90;;;;;;5033043;28;20052;-77
2022/08/11 11:23:25;;;;;;;3.00;1.20;;;32.10;45.30;;;;;;5033328;28;20052;-76
2022/08/11 11:26:18;;;;;;;2.30;1.23;;;32.10;44.80;;;;;;5033068;28;20068;-76
2022/08/11 11:29:15;;;;;;;2.00;1.30;;;32.10;44.80;;;;;;5033249;28;20087;-76
2022/08/11 11:32:08;;;;;;;2.28;1.20;;;32.30;46.80;;;;;;5032929;28;20041;-76
2022/08/11 11:35:12;;;;;;;4.93;1.00;;;32.20;44.00;;;;;;5033048;28;20098;-76
2022/08/11 11:37:39;;;;;;;1.45;1.02;;;32.10;44.30;;;;;;5033018;28;20073;-76
2022/08/11 11:40:14;;;;;;;4.50;1.10;;;31.90;44.20;;;;;;5034471;28;20056;-76
2022/08/11 11:42:42;;;;;;;5.10;1.10;;;31.90;44.80;;;;;;5037103;28;20056;-77
2022/08/11 11:45:09;;;;;;;1.75;1.40;;;32.00;43.90;;;;;;5036701;28;20033;-76
2022/08/11 11:47:37;;;;;;;3.25;1.70;;;32.00;43.40;;;;;;5053575;28;20506;-77
2022/08/11 11:50:05;;;;;;;2.90;1.33;;;32.00;43.50;;;;;;5036426;28;20450;-77
2022/08/11 11:52:32;;;;;;;4.25;1.33;;;32.00;44.80;;;;;;5020289;28;20045;-76
2022/08/11 11:54:59;;;;;;;3.00;1.15;;;32.00;44.90;;;;;;5054679;28;20076;-77
2022/08/11 12:02:58;;;;;;;3.60;1.33;;;31.90;44.20;;;;;;5036511;28;20569;-77
2022/08/11 12:05:26;;;;;;;2.60;1.30;;;32.00;43.90;;;;;;5036586;28;20106;-76
2022/08/11 12:08:11;;;;;;;3.88;1.15;;;31.90;43.80;;;;;;5036554;28;20037;-76
2022/08/11 12:13:39;;;;;;;3.72;1.15;;;31.70;44.10;;;;;;5036369;28;20103;-76
2022/08/11 12:13:39;;;;;;;4.05;1.50;;;31.70;44.70;;;;;;5036560;28;20136;-77
2022/08/11 12:16:07;;;;;;;3.03;1.55;;;31.70;44.50;;;;;;5036664;28;20037;-76
2022/08/11 12:18:34;;;;;;;4.00;1.20;;;31.90;45.10;;;;;;5036754;28;20116;-76
2022/08/11 12:21:01;;;;;;;1.40;1.10;;;32.00;44.70;;;;;;5036340;28;20438;-76
2022/08/11 12:28:59;;;;;;;2.08;1.00;;;32.20;44.70;;;;;;5054244;28;20068;-77
2022/08/11 12:31:29;;;;;;;1.70;0.98;;;32.30;45.20;;;;;;5035723;28;20117;-77
2022/08/11 12:34:09;;;;;;;3.30;1.02;;;32.40;44.60;;;;;;5054180;28;20041;-77
2022/08/11 12:36:53;;;;;;;1.70;1.23;;;32.50;42.70;;;;;;5036169;28;20087;-77
2022/08/11 12:45:26;;;;;;;3.63;0.90;;;32.40;43.80;;;;;;5036451;28;20049;-77
2022/08/11 12:53:24;;;;;;;2.28;1.00;;;32.00;44.00;;;;;;5036107;28;20416;-76
2022/08/11 12:58:39;;;;;;;3.38;1.20;;;32.20;44.40;;;;;;5036039;28;20064;-76
2022/08/11 13:06:36;;;;;;;1.48;1.38;;;32.30;43.70;;;;;;5035459;28;20602;-77
2022/08/11 13:09:04;;;;;;;1.90;0.98;;;32.20;43.50;;;;;;5035576;28;20112;-78
2022/08/11 13:14:16;;;;;;;1.85;1.00;;;32.10;44.50;;;;;;5035541;28;20056;-77
2022/08/11 13:19:28;;;;;;;1.20;1.10;;;32.20;44.10;;;;;;5053167;28;20120;-77
2022/08/11 13:21:55;;;;;;;3.35;1.27;;;32.40;44.10;;;;;;5018976;28;20033;-76
2022/08/11 13:24:21;;;;;;;4.10;1.30;;;32.50;43.90;;;;;;5018662;28;20045;-77
2022/08/11 13:26:49;;;;;;;2.13;1.23;;;32.60;43.80;;;;;;5035828;28;20048;-77
2022/08/11 13:29:20;;;;;;;3.78;1.25;;;32.80;43.80;;;;;;5035071;28;20056;-77
2022/08/11 13:31:46;;;;;;;;;;;32.70;42.70;;;;;;5035428;28;20037;-78
2022/08/11 13:34:13;;;;;;;4.30;1.20;;;32.60;43.80;;;;;;5052916;28;19923;-77
2022/08/11 13:36:39;;;;;;;2.05;1.20;;;32.50;43.60;;;;;;5035025;28;20140;-77
2022/08/11 13:39:06;;;;;;;3.80;2.00;;;32.40;43.20;;;;;;5035171;28;20049;-76
2022/08/11 13:41:43;;;;;;;1.65;0.90;;;32.40;43.00;;;;;;5052297;28;20106;-78
2022/08/11 13:44:12;;;;;;;3.35;0.90;;;32.30;42.90;;;;;;5052673;28;20045;-77
2022/08/11 13:46:39;;;;;;;3.60;1.17;;;32.20;42.30;;;;;;5034594;28;20036;-77
2022/08/11 13:49:07;;;;;;;3.10;1.10;;;32.10;42.50;;;;;;5018173;28;20068;-76
2022/08/11 13:51:35;;;;;;;1.33;0.80;;;32.00;42.10;;;;;;5034386;28;20064;-77
2022/08/11 13:54:08;;;;;;;1.63;1.08;;;32.00;42.40;;;;;;5037410;28;20041;-75
2022/08/11 13:56:39;;;;;;;1.85;1.00;;;31.90;42.90;;;;;;5074777;28;20053;-77
2022/08/11 13:59:07;;;;;;;2.15;1.00;;;31.80;42.80;;;;;;5059613;28;20032;-77
2022/08/11 14:01:38;;;;;;;2.58;1.20;;;31.80;43.30;;;;;;5052472;28;20116;-77
2022/08/11 14:04:26;;;;;;;2.58;0.98;;;31.90;42.80;;;;;;5034043;28;20037;-77
2022/08/11 14:06:53;;;;;;;1.58;0.80;;;32.00;42.90;;;;;;5052481;28;20029;-78
2022/08/11 14:09:26;;;;;;;1.77;1.08;;;32.10;42.90;;;;;;5017825;28;20037;-77
2022/08/11 14:14:48;;;;;;;2.25;1.08;;;32.20;43.20;;;;;;5034248;28;20113;-77
2022/08/11 14:17:17;;;;;;;3.45;0.93;;;32.20;42.40;;;;;;5018005;28;20051;-76
2022/08/11 14:19:46;;;;;;;6.25;1.27;;;32.10;41.90;;;;;;5050438;28;20045;-76
2022/08/11 14:22:14;;;;;;;5.15;0.95;;;31.90;41.60;;;;;;5034036;28;20044;-75
2022/08/11 14:24:42;;;;;;;7.15;1.13;;;31.80;41.90;;;;;;5050461;28;20041;-76
2022/08/11 14:27:10;;;;;;;3.22;0.90;;;31.70;42.00;;;;;;5034155;28;20070;-74
2022/08/11 14:29:39;;;;;;;2.70;1.20;;;31.60;42.40;;;;;;5033647;28;20877;-75
2022/08/11 14:32:08;;;;;;;2.35;0.95;;;31.60;42.70;;;;;;5050959;28;20183;-76
2022/08/11 14:34:37;;;;;;;1.50;0.90;;;31.70;42.00;;;;;;5017255;28;20507;-75
2022/08/11 14:37:09;;;;;;;4.63;1.02;;;31.60;42.20;;;;;;5033701;28;20049;-77
2022/08/11 14:39:52;;;;;;;2.15;0.75;;;31.50;41.30;;;;;;5016893;28;20047;-77
2022/08/11 14:48:00;;;;;;;;;;;31.60;41.30;;;;;;5051879;28;20123;-77
2022/08/11 14:50:27;;;;;;;2.58;0.98;;;31.60;44.50;;;;;;5033670;28;19917;-75
2022/08/11 14:53:05;;;;;;;1.83;1.00;;;31.60;42.30;;;;;;5017596;28;20041;-76
2022/08/11 14:58:28;;;;;;;2.28;0.88;;;31.60;42.20;;;;;;5052024;28;20056;-77
2022/08/11 15:00:56;;;;;;;6.43;1.23;;;31.50;42.30;;;;;;5033730;28;20110;-75
2022/08/11 15:03:24;;;;;;;3.08;1.05;;;31.50;42.50;;;;;;5033954;28;20099;-75
2022/08/11 15:05:52;;;;;;;1.90;1.02;;;31.40;42.30;;;;;;5033795;28;20559;-77
2022/08/11 15:08:53;;;;;;;1.70;0.73;;;31.40;43.10;;;;;;5033438;28;20053;-76
2022/08/11 15:12:07;;;;;;;2.00;1.00;;;31.40;42.70;;;;;;5033052;28;20045;-76
2022/08/11 15:13:53;;;;;;;1.00;0.88;;;31.30;43.20;;;;;;5032873;28;20083;-76
2022/08/11 15:19:04;;;;;;;1.60;0.88;;;31.50;43.30;;;;;;5033107;28;20049;-76
2022/08/11 15:24:20;;;;;;;4.88;1.38;;;31.40;42.60;;;;;;5051016;28;20393;-75
2022/08/11 15:37:57;;;;;;;2.35;1.20;;;31.10;43.30;;;;;;5033136;28;20072;-75
2022/08/11 15:46:39;;;;;;;3.65;1.60;;;30.90;44.00;;;;;;5033186;28;20106;-76
2022/08/11 15:49:12;;;;;;;7.60;3.47;;;30.90;44.10;;;;;;5033698;28;20037;-76
2022/08/11 15:52:01;;;;;;;1.15;0.93;;;30.80;44.20;;;;;;5044914;28;20047;-76
2022/08/11 15:54:30;;;;;;;2.67;1.00;;;30.70;45.00;;;;;;5041229;28;20072;-75
2022/08/11 15:56:57;;;;;;;5.80;1.40;;;30.60;44.80;;;;;;5052259;28;20044;-75
2022/08/11 16:04:45;;;;;;;1.73;1.02;;;30.40;44.70;;;;;;5051492;28;20082;-76
2022/08/11 16:07:13;;;;;;;3.30;1.30;;;30.40;44.80;;;;;;5052669;28;20380;-76
2022/08/11 16:09:50;;;;;;;1.73;1.15;;;30.30;44.90;;;;;;5035695;28;20047;-75
2022/08/11 16:12:21;;;;;;;1.95;1.10;;;30.30;45.10;;;;;;5052206;28;20040;-76
2022/08/11 16:17:40;;;;;;;3.80;0.98;;;30.30;45.30;;;;;;5052545;28;20662;-76
2022/08/11 16:20:07;;;;;;;2.92;1.00;;;30.30;44.90;;;;;;5035494;28;20411;-75
2022/08/11 16:22:42;;;;;;;5.07;1.15;;;30.20;44.90;;;;;;5052048;28;20514;-75
2022/08/11 16:25:11;;;;;;;3.08;0.98;;;30.10;45.10;;;;;;5052578;28;20384;-76
2022/08/11 16:27:45;;;;;;;7.72;1.00;;;30.10;45.60;;;;;;5056096;28;20044;-76
2022/08/11 16:30:13;;;;;;;2.58;1.15;;;30.00;45.70;;;;;;5039389;28;20052;-76
2022/08/11 16:32:42;;;;;;;2.05;1.02;;;29.90;45.40;;;;;;5056251;28;20563;-76
2022/08/11 16:40:59;;;;;;;1.33;1.02;;;29.60;46.40;;;;;;5055784;28;20094;-76
2022/08/11 16:49:03;;;;;;;1.45;1.08;;;29.40;46.10;;;;;;5056035;28;20048;-76
2022/08/11 16:51:30;;;;;;;1.48;0.93;;;29.30;46.20;;;;;;5055809;28;20102;-76
2022/08/11 16:53:56;;;;;;;5.38;1.33;;;29.30;46.10;;;;;;5055915;28;20475;-76
2022/08/11 16:56:46;;;;;;;3.38;1.20;;;29.20;46.10;;;;;;5055745;28;20055;-76
2022/08/11 16:59:37;;;;;;;1.97;1.13;;;29.20;46.40;;;;;;5055402;28;20109;-76
2022/08/11 17:13:07;;;;;;;2.72;1.10;;;29.10;47.30;;;;;;5055979;28;20055;-76
2022/08/11 17:13:53;;;;;;;3.35;1.10;;;28.70;47.80;;;;;;5055205;28;20052;-77
2022/08/11 17:16:26;;;;;;;4.80;1.30;;;28.70;47.70;;;;;;5055057;28;20110;-77
2022/08/11 17:19:00;;;;;;;1.95;1.10;;;28.60;48.10;;;;;;5038862;28;20163;-76
2022/08/11 17:23:45;;;;;;;1.10;0.90;;;28.50;48.30;;;;;;5072776;28;20036;-77
2022/08/11 17:24:23;;;;;;;2.92;1.25;;;28.40;48.70;;;;;;5055092;28;20064;-77
2022/08/11 17:26:55;;;;;;;1.88;1.02;;;28.40;49.20;;;;;;5073181;28;20094;-77
2022/08/11 17:29:43;;;;;;;3.10;1.40;;;28.20;49.70;;;;;;5055198;28;20188;-77
2022/08/11 17:37:49;;;;;;;1.65;1.30;;;27.90;51.30;;;;;;5056051;28;20066;-77
2022/08/11 17:40:23;;;;;;;5.90;1.23;;;27.80;51.70;;;;;;5067644;28;20052;-76
2022/08/11 17:48:26;;;;;;;1.42;1.30;;;27.60;53.10;;;;;;5054704;28;20063;-77
2022/08/11 17:50:54;;;;;;;1.73;1.10;;;27.50;54.00;;;;;;5054201;28;20399;-76
2022/08/11 18:01:38;;;;;;;5.30;1.67;;;27.20;54.30;;;;;;5054288;28;20135;-76
2022/08/11 18:04:06;;;;;;;2.42;1.17;;;27.10;54.50;;;;;;5054429;28;20124;-77
2022/08/11 18:06:33;;;;;;;6.55;1.25;;;27.10;55.60;;;;;;5054365;28;20452;-77
